Kearney, NE (68845)

07:17 PM CST del 26 novembre 2014 (GMT -0600)
Regency | Change Station
CLOSE
Current Station
Stazione meteo personale
Location: Kearney, NE
Altitudine: 2224 ft
Stazioni meteo nelle vicinanze

Alt. 2224 ft 40.72 °N, 99.08 °W | Updated 1 second ago

Coperto
Coperto
26.7 °F
Sembra 22 °F
N
3.6
Vento Variabile Vento da Nord
Gusts 4.6 mph

Oggi
Massima -- | Minima -- °F
--% Possibilità di precip.
Ieri
Massima -- | Minima -- °F
Precip. -- in
7:36 AM 5:11 PM
Luna crescente, 24% visible
Pressione 30.37 in
Visibilità 10.0 miglia
Nuvole Sereno
Raffreddamento del vento 22 °F
Punto di rugiada 18 °F
Umidità 69%
Piovosità 0.00 in
Spessore del manto nevoso Non disponibile.
Raggi UV 0 fuori da 12
Polline .10 fuori da 12
Qualità dell'aria Non disponibile.
Flu Activity Non disponibile.
METAR KEAR 270055Z 32006KT 10SM CLR M02/M09 A3037 RMK AO1

More Conditions Fewer Conditions

Pressione 30.37 in
Visibilità 10.0 miglia
Nuvole Sereno
Raffreddamento del vento 22 °F
Punto di rugiada 18 °F
Umidità 69%
Piovosità 0.00 in
Spessore del manto nevoso Non disponibile.
Raggi UV 0 fuori da 12
Polline .10 fuori da 12
Qualità dell'aria Non disponibile.
Flu Activity Non disponibile.
METAR KEAR 270055Z 32006KT 10SM CLR M02/M09 A3037 RMK AO1

More Conditions Fewer Conditions

10-Day Weather Forecast

Almanac

Astronomia

Nov. 26, 2014 Alba Tramonto
Ora attuale
Crepuscolo civile
Crepuscolo nautico
Crepuscolo astronomico
Luna
Estensione della luce visibile
Lunghezza del giorno
Tomorrow will be .
, % of the Moon is Illuminated

Gli estremi di oggi

State Highs State Lows

Community

WunderPhotos

Upload Photos

1,773,935 foto caricate!

WunderBlogs® & News

Nearby

Qualità dell'aria

  Qualità dell'aria Indice AQ Inquinante
Not available.

Profondità neve

Stazione Profondità Altitudine

Attività sismica

Città  Distanza Mag. Data & Ora
Minimo Magnitudo Mostrato è 2.5.

Temperature delle acque costiere

Località Temperatura

Stazioni meteo nelle vicinanze